sensor_id;sensor_type;location;lat;lon;timestamp;temperature;humidity
54954;DHT22;40855;51.072;5.402;2023-01-19T00:00:02;2.20;99.90
54954;DHT22;40855;51.072;5.402;2023-01-19T00:02:28;2.10;99.90
54954;DHT22;40855;51.072;5.402;2023-01-19T00:04:53;2.10;99.90
54954;DHT22;40855;51.072;5.402;2023-01-19T00:07:19;2.10;99.90
54954;DHT22;40855;51.072;5.402;2023-01-19T00:09:45;2.10;99.90
54954;DHT22;40855;51.072;5.402;2023-01-19T00:12:10;2.10;99.90
54954;DHT22;40855;51.072;5.402;2023-01-19T00:14:36;2.10;99.90
54954;DHT22;40855;51.072;5.402;2023-01-19T00:17:02;2.10;99.90
54954;DHT22;40855;51.072;5.402;2023-01-19T00:19:28;2.10;99.90
54954;DHT22;40855;51.072;5.402;2023-01-19T00:21:54;2.10;99.90
54954;DHT22;40855;51.072;5.402;2023-01-19T00:24:20;2.10;99.90
54954;DHT22;40855;51.072;5.402;2023-01-19T00:26:46;2.10;99.90
54954;DHT22;40855;51.072;5.402;2023-01-19T00:29:12;2.00;99.90
54954;DHT22;40855;51.072;5.402;2023-01-19T00:31:38;2.10;99.90
54954;DHT22;40855;51.072;5.402;2023-01-19T00:34:05;2.10;99.90
54954;DHT22;40855;51.072;5.402;2023-01-19T00:36:31;2.10;99.90
54954;DHT22;40855;51.072;5.402;2023-01-19T00:38:57;2.10;99.90
54954;DHT22;40855;51.072;5.402;2023-01-19T00:41:23;2.00;99.90
54954;DHT22;40855;51.072;5.402;2023-01-19T00:44:09;2.00;99.90
54954;DHT22;40855;51.072;5.402;2023-01-19T00:46:35;2.00;99.90
54954;DHT22;40855;51.072;5.402;2023-01-19T00:49:01;2.10;99.90
54954;DHT22;40855;51.072;5.402;2023-01-19T00:51:27;2.00;99.90
54954;DHT22;40855;51.072;5.402;2023-01-19T00:53:52;2.00;99.90
54954;DHT22;40855;51.072;5.402;2023-01-19T00:56:18;2.00;99.90
54954;DHT22;40855;51.072;5.402;2023-01-19T00:58:44;2.00;99.90
54954;DHT22;40855;51.072;5.402;2023-01-19T01:01:10;2.00;99.90
54954;DHT22;40855;51.072;5.402;2023-01-19T01:03:36;2.00;99.90
54954;DHT22;40855;51.072;5.402;2023-01-19T01:06:03;2.00;99.90
54954;DHT22;40855;51.072;5.402;2023-01-19T01:08:31;1.90;99.90
54954;DHT22;40855;51.072;5.402;2023-01-19T01:10:57;2.00;99.90
54954;DHT22;40855;51.072;5.402;2023-01-19T01:13:23;1.90;99.90
54954;DHT22;40855;51.072;5.402;2023-01-19T01:15:52;2.00;99.90
54954;DHT22;40855;51.072;5.402;2023-01-19T01:18:19;1.90;99.90
54954;DHT22;40855;51.072;5.402;2023-01-19T01:20:45;2.00;99.90
54954;DHT22;40855;51.072;5.402;2023-01-19T01:23:11;2.00;99.90
54954;DHT22;40855;51.072;5.402;2023-01-19T01:25:37;2.00;99.90
54954;DHT22;40855;51.072;5.402;2023-01-19T01:28:04;1.90;99.90
54954;DHT22;40855;51.072;5.402;2023-01-19T01:30:33;2.00;99.90
54954;DHT22;40855;51.072;5.402;2023-01-19T01:32:59;2.00;99.90
54954;DHT22;40855;51.072;5.402;2023-01-19T01:35:26;1.90;99.90
54954;DHT22;40855;51.072;5.402;2023-01-19T01:37:51;1.90;99.90
54954;DHT22;40855;51.072;5.402;2023-01-19T01:40:18;1.90;99.90
54954;DHT22;40855;51.072;5.402;2023-01-19T01:42:44;1.90;99.90
54954;DHT22;40855;51.072;5.402;2023-01-19T01:45:33;2.00;99.90
54954;DHT22;40855;51.072;5.402;2023-01-19T01:50:36;1.80;99.90
54954;DHT22;40855;51.072;5.402;2023-01-19T01:53:11;1.80;99.90
54954;DHT22;40855;51.072;5.402;2023-01-19T01:55:41;1.80;99.90
54954;DHT22;40855;51.072;5.402;2023-01-19T01:58:09;1.80;99.90
54954;DHT22;40855;51.072;5.402;2023-01-19T02:00:36;1.80;99.90
54954;DHT22;40855;51.072;5.402;2023-01-19T02:03:24;1.80;99.90
54954;DHT22;40855;51.072;5.402;2023-01-19T02:05:52;1.90;99.90
54954;DHT22;40855;51.072;5.402;2023-01-19T02:11:15;1.80;99.90
54954;DHT22;40855;51.072;5.402;2023-01-19T02:14:03;1.80;99.90
54954;DHT22;40855;51.072;5.402;2023-01-19T02:16:29;1.80;99.90
54954;DHT22;40855;51.072;5.402;2023-01-19T02:18:57;1.80;99.90
54954;DHT22;40855;51.072;5.402;2023-01-19T02:22:00;1.80;99.90
54954;DHT22;40855;51.072;5.402;2023-01-19T02:24:27;1.80;99.90
54954;DHT22;40855;51.072;5.402;2023-01-19T02:26:54;1.80;99.90
54954;DHT22;40855;51.072;5.402;2023-01-19T02:29:22;1.80;99.90
54954;DHT22;40855;51.072;5.402;2023-01-19T02:31:50;1.80;99.90
54954;DHT22;40855;51.072;5.402;2023-01-19T02:34:18;1.80;99.90
54954;DHT22;40855;51.072;5.402;2023-01-19T02:36:51;1.80;99.90
54954;DHT22;40855;51.072;5.402;2023-01-19T02:39:20;1.80;99.90
54954;DHT22;40855;51.072;5.402;2023-01-19T02:41:53;1.80;99.90
54954;DHT22;40855;51.072;5.402;2023-01-19T02:44:21;1.80;99.90
54954;DHT22;40855;51.072;5.402;2023-01-19T02:46:47;1.80;99.90
54954;DHT22;40855;51.072;5.402;2023-01-19T02:49:13;1.80;99.90
54954;DHT22;40855;51.072;5.402;2023-01-19T02:51:42;1.80;99.90
54954;DHT22;40855;51.072;5.402;2023-01-19T02:59:46;1.80;99.90
54954;DHT22;40855;51.072;5.402;2023-01-19T03:08:11;1.70;99.90
54954;DHT22;40855;51.072;5.402;2023-01-19T03:10:53;1.80;99.90
54954;DHT22;40855;51.072;5.402;2023-01-19T03:13:28;1.80;99.90
54954;DHT22;40855;51.072;5.402;2023-01-19T03:18:57;1.70;99.90
54954;DHT22;40855;51.072;5.402;2023-01-19T03:21:27;1.80;99.90
54954;DHT22;40855;51.072;5.402;2023-01-19T03:23:57;1.80;99.90
54954;DHT22;40855;51.072;5.402;2023-01-19T03:26:29;1.80;99.90
54954;DHT22;40855;51.072;5.402;2023-01-19T03:28:58;1.80;99.90
54954;DHT22;40855;51.072;5.402;2023-01-19T03:31:27;1.80;99.90
54954;DHT22;40855;51.072;5.402;2023-01-19T03:34:02;1.80;99.90
54954;DHT22;40855;51.072;5.402;2023-01-19T03:36:34;1.80;99.90
54954;DHT22;40855;51.072;5.402;2023-01-19T03:39:01;1.90;99.90
54954;DHT22;40855;51.072;5.402;2023-01-19T03:41:30;1.80;99.90
54954;DHT22;40855;51.072;5.402;2023-01-19T03:43:59;1.80;99.90
54954;DHT22;40855;51.072;5.402;2023-01-19T03:46:26;1.80;99.90
54954;DHT22;40855;51.072;5.402;2023-01-19T03:48:52;1.90;99.90
54954;DHT22;40855;51.072;5.402;2023-01-19T03:51:20;1.90;99.90
54954;DHT22;40855;51.072;5.402;2023-01-19T03:53:46;1.90;99.90
54954;DHT22;40855;51.072;5.402;2023-01-19T03:56:19;1.90;99.90
54954;DHT22;40855;51.072;5.402;2023-01-19T03:58:45;1.90;99.90
54954;DHT22;40855;51.072;5.402;2023-01-19T04:01:12;1.90;99.90
54954;DHT22;40855;51.072;5.402;2023-01-19T04:03:39;1.90;99.90
54954;DHT22;40855;51.072;5.402;2023-01-19T04:06:06;1.90;99.90
54954;DHT22;40855;51.072;5.402;2023-01-19T04:08:32;1.90;99.90
54954;DHT22;40855;51.072;5.402;2023-01-19T04:10:58;1.90;99.90
54954;DHT22;40855;51.072;5.402;2023-01-19T04:13:24;2.00;99.90
54954;DHT22;40855;51.072;5.402;2023-01-19T04:15:52;2.00;99.90
54954;DHT22;40855;51.072;5.402;2023-01-19T04:18:18;2.00;99.90
54954;DHT22;40855;51.072;5.402;2023-01-19T04:20:44;1.90;99.90
54954;DHT22;40855;51.072;5.402;2023-01-19T04:23:10;1.90;99.90
54954;DHT22;40855;51.072;5.402;2023-01-19T04:25:36;1.90;99.90
54954;DHT22;40855;51.072;5.402;2023-01-19T04:28:01;2.00;99.90
54954;DHT22;40855;51.072;5.402;2023-01-19T04:30:27;1.90;99.90
54954;DHT22;40855;51.072;5.402;2023-01-19T04:32:53;1.90;99.90
54954;DHT22;40855;51.072;5.402;2023-01-19T04:35:20;1.90;99.90
54954;DHT22;40855;51.072;5.402;2023-01-19T04:37:47;1.90;99.90
54954;DHT22;40855;51.072;5.402;2023-01-19T04:40:12;1.90;99.90
54954;DHT22;40855;51.072;5.402;2023-01-19T04:42:42;2.00;99.90
54954;DHT22;40855;51.072;5.402;2023-01-19T04:45:10;2.00;99.90
54954;DHT22;40855;51.072;5.402;2023-01-19T04:47:36;1.90;99.90
54954;DHT22;40855;51.072;5.402;2023-01-19T04:50:02;2.00;99.90
54954;DHT22;40855;51.072;5.402;2023-01-19T04:52:33;2.00;99.90
54954;DHT22;40855;51.072;5.402;2023-01-19T04:55:01;2.00;99.90
54954;DHT22;40855;51.072;5.402;2023-01-19T04:57:27;2.00;99.90
54954;DHT22;40855;51.072;5.402;2023-01-19T04:59:55;2.00;99.90
54954;DHT22;40855;51.072;5.402;2023-01-19T05:02:20;2.00;99.90
54954;DHT22;40855;51.072;5.402;2023-01-19T05:04:47;2.10;99.90
54954;DHT22;40855;51.072;5.402;2023-01-19T05:07:13;2.00;99.90
54954;DHT22;40855;51.072;5.402;2023-01-19T05:09:38;2.00;99.90
54954;DHT22;40855;51.072;5.402;2023-01-19T05:12:04;2.10;99.90
54954;DHT22;40855;51.072;5.402;2023-01-19T05:14:30;2.00;99.90
54954;DHT22;40855;51.072;5.402;2023-01-19T05:16:56;2.10;99.90
54954;DHT22;40855;51.072;5.402;2023-01-19T05:19:22;2.00;99.90
54954;DHT22;40855;51.072;5.402;2023-01-19T05:21:48;2.00;99.90
54954;DHT22;40855;51.072;5.402;2023-01-19T05:24:14;2.00;99.90
54954;DHT22;40855;51.072;5.402;2023-01-19T05:26:40;2.00;99.90
54954;DHT22;40855;51.072;5.402;2023-01-19T05:29:06;2.00;99.90
54954;DHT22;40855;51.072;5.402;2023-01-19T05:31:32;2.10;99.90
54954;DHT22;40855;51.072;5.402;2023-01-19T05:33:58;2.00;99.90
54954;DHT22;40855;51.072;5.402;2023-01-19T05:36:24;2.00;99.90
54954;DHT22;40855;51.072;5.402;2023-01-19T05:38:50;2.00;99.90
54954;DHT22;40855;51.072;5.402;2023-01-19T05:41:15;1.90;99.90
54954;DHT22;40855;51.072;5.402;2023-01-19T05:43:42;2.00;99.90
54954;DHT22;40855;51.072;5.402;2023-01-19T05:46:07;2.00;99.90
54954;DHT22;40855;51.072;5.402;2023-01-19T05:48:33;2.00;99.90
54954;DHT22;40855;51.072;5.402;2023-01-19T05:50:59;2.00;99.90
54954;DHT22;40855;51.072;5.402;2023-01-19T05:53:26;2.10;99.90
54954;DHT22;40855;51.072;5.402;2023-01-19T05:55:52;2.00;99.90
54954;DHT22;40855;51.072;5.402;2023-01-19T05:58:18;2.00;99.90
54954;DHT22;40855;51.072;5.402;2023-01-19T06:00:43;2.00;99.90
54954;DHT22;40855;51.072;5.402;2023-01-19T06:03:09;2.00;99.90
54954;DHT22;40855;51.072;5.402;2023-01-19T06:05:35;2.10;99.90
54954;DHT22;40855;51.072;5.402;2023-01-19T06:08:02;2.10;99.90
54954;DHT22;40855;51.072;5.402;2023-01-19T06:10:28;2.10;99.90
54954;DHT22;40855;51.072;5.402;2023-01-19T06:12:54;2.00;99.90
54954;DHT22;40855;51.072;5.402;2023-01-19T06:15:22;2.10;99.90
54954;DHT22;40855;51.072;5.402;2023-01-19T06:17:48;2.00;99.90
54954;DHT22;40855;51.072;5.402;2023-01-19T06:20:14;2.00;99.90
54954;DHT22;40855;51.072;5.402;2023-01-19T06:22:40;2.00;99.90
54954;DHT22;40855;51.072;5.402;2023-01-19T06:25:06;2.00;99.90
54954;DHT22;40855;51.072;5.402;2023-01-19T06:27:31;2.10;99.90
54954;DHT22;40855;51.072;5.402;2023-01-19T06:29:57;2.10;99.90
54954;DHT22;40855;51.072;5.402;2023-01-19T06:32:23;2.10;99.90
54954;DHT22;40855;51.072;5.402;2023-01-19T06:34:48;2.10;99.90
54954;DHT22;40855;51.072;5.402;2023-01-19T06:37:14;2.10;99.90
54954;DHT22;40855;51.072;5.402;2023-01-19T06:39:43;2.10;99.90
54954;DHT22;40855;51.072;5.402;2023-01-19T06:42:10;2.00;99.90
54954;DHT22;40855;51.072;5.402;2023-01-19T06:44:36;2.10;99.90
54954;DHT22;40855;51.072;5.402;2023-01-19T06:47:01;2.10;99.90
54954;DHT22;40855;51.072;5.402;2023-01-19T06:49:27;2.10;99.90
54954;DHT22;40855;51.072;5.402;2023-01-19T06:51:53;2.10;99.90
54954;DHT22;40855;51.072;5.402;2023-01-19T06:54:18;2.10;99.90
54954;DHT22;40855;51.072;5.402;2023-01-19T06:56:44;2.20;99.90
54954;DHT22;40855;51.072;5.402;2023-01-19T06:59:10;2.10;99.90
54954;DHT22;40855;51.072;5.402;2023-01-19T07:01:36;2.10;99.90
54954;DHT22;40855;51.072;5.402;2023-01-19T07:04:01;2.10;99.90
54954;DHT22;40855;51.072;5.402;2023-01-19T07:06:27;2.10;99.90
54954;DHT22;40855;51.072;5.402;2023-01-19T07:08:53;2.10;99.90
54954;DHT22;40855;51.072;5.402;2023-01-19T07:11:19;2.10;99.90
54954;DHT22;40855;51.072;5.402;2023-01-19T07:13:44;2.10;99.90
54954;DHT22;40855;51.072;5.402;2023-01-19T07:16:15;2.10;99.90
54954;DHT22;40855;51.072;5.402;2023-01-19T07:18:41;2.10;99.90
54954;DHT22;40855;51.072;5.402;2023-01-19T07:21:07;2.10;99.90
54954;DHT22;40855;51.072;5.402;2023-01-19T07:23:33;2.10;99.90
54954;DHT22;40855;51.072;5.402;2023-01-19T07:25:59;2.10;99.90
54954;DHT22;40855;51.072;5.402;2023-01-19T07:28:26;2.10;99.90
54954;DHT22;40855;51.072;5.402;2023-01-19T07:30:53;2.00;99.90
54954;DHT22;40855;51.072;5.402;2023-01-19T07:33:20;2.10;99.90
54954;DHT22;40855;51.072;5.402;2023-01-19T07:35:50;2.00;99.90
54954;DHT22;40855;51.072;5.402;2023-01-19T07:38:17;2.00;99.90
54954;DHT22;40855;51.072;5.402;2023-01-19T07:40:43;2.00;99.90
54954;DHT22;40855;51.072;5.402;2023-01-19T07:43:11;2.10;99.90
54954;DHT22;40855;51.072;5.402;2023-01-19T07:45:37;2.00;99.90
54954;DHT22;40855;51.072;5.402;2023-01-19T07:48:03;2.10;99.90
54954;DHT22;40855;51.072;5.402;2023-01-19T07:50:30;2.10;99.90
54954;DHT22;40855;51.072;5.402;2023-01-19T07:52:56;2.10;99.90
54954;DHT22;40855;51.072;5.402;2023-01-19T07:55:22;2.10;99.90
54954;DHT22;40855;51.072;5.402;2023-01-19T07:57:51;2.10;99.90
54954;DHT22;40855;51.072;5.402;2023-01-19T08:00:18;2.10;99.90
54954;DHT22;40855;51.072;5.402;2023-01-19T08:02:50;2.10;99.90
54954;DHT22;40855;51.072;5.402;2023-01-19T08:05:17;2.10;99.90
54954;DHT22;40855;51.072;5.402;2023-01-19T08:07:43;2.10;99.90
54954;DHT22;40855;51.072;5.402;2023-01-19T08:10:12;2.10;99.90
54954;DHT22;40855;51.072;5.402;2023-01-19T08:12:38;2.10;99.90
54954;DHT22;40855;51.072;5.402;2023-01-19T08:15:05;2.10;99.90
54954;DHT22;40855;51.072;5.402;2023-01-19T08:17:31;2.10;99.90
54954;DHT22;40855;51.072;5.402;2023-01-19T08:19:57;2.10;99.90
54954;DHT22;40855;51.072;5.402;2023-01-19T08:22:23;2.10;99.90
54954;DHT22;40855;51.072;5.402;2023-01-19T08:24:49;2.10;99.90
54954;DHT22;40855;51.072;5.402;2023-01-19T08:27:16;2.10;99.90
54954;DHT22;40855;51.072;5.402;2023-01-19T08:29:41;2.00;99.90
54954;DHT22;40855;51.072;5.402;2023-01-19T08:32:07;2.10;99.90
54954;DHT22;40855;51.072;5.402;2023-01-19T08:34:33;2.10;99.90
54954;DHT22;40855;51.072;5.402;2023-01-19T08:36:59;2.10;99.90
54954;DHT22;40855;51.072;5.402;2023-01-19T08:39:24;2.00;99.90
54954;DHT22;40855;51.072;5.402;2023-01-19T08:41:50;2.00;99.90
54954;DHT22;40855;51.072;5.402;2023-01-19T08:44:17;2.00;99.90
54954;DHT22;40855;51.072;5.402;2023-01-19T08:46:43;2.00;99.90
54954;DHT22;40855;51.072;5.402;2023-01-19T08:49:09;2.00;99.90
54954;DHT22;40855;51.072;5.402;2023-01-19T08:51:34;2.10;99.90
54954;DHT22;40855;51.072;5.402;2023-01-19T08:54:00;2.10;99.90
54954;DHT22;40855;51.072;5.402;2023-01-19T08:56:26;2.10;99.90
54954;DHT22;40855;51.072;5.402;2023-01-19T08:58:52;2.10;99.90
54954;DHT22;40855;51.072;5.402;2023-01-19T09:01:17;2.20;99.90
54954;DHT22;40855;51.072;5.402;2023-01-19T09:03:45;2.10;99.90
54954;DHT22;40855;51.072;5.402;2023-01-19T09:06:13;2.10;99.90
54954;DHT22;40855;51.072;5.402;2023-01-19T09:08:41;2.10;99.90
54954;DHT22;40855;51.072;5.402;2023-01-19T09:11:12;2.10;99.90
54954;DHT22;40855;51.072;5.402;2023-01-19T09:13:38;2.20;99.90
54954;DHT22;40855;51.072;5.402;2023-01-19T09:16:05;2.10;99.90
54954;DHT22;40855;51.072;5.402;2023-01-19T09:18:33;2.10;99.90
54954;DHT22;40855;51.072;5.402;2023-01-19T09:21:00;2.10;99.90
54954;DHT22;40855;51.072;5.402;2023-01-19T09:23:26;2.10;99.90
54954;DHT22;40855;51.072;5.402;2023-01-19T09:26:03;2.10;99.90
54954;DHT22;40855;51.072;5.402;2023-01-19T09:28:29;2.10;99.90
54954;DHT22;40855;51.072;5.402;2023-01-19T09:30:55;2.20;99.90
54954;DHT22;40855;51.072;5.402;2023-01-19T09:33:21;2.10;99.90
54954;DHT22;40855;51.072;5.402;2023-01-19T09:35:48;2.10;99.90
54954;DHT22;40855;51.072;5.402;2023-01-19T09:38:15;2.10;99.90
54954;DHT22;40855;51.072;5.402;2023-01-19T09:40:44;2.10;99.90
54954;DHT22;40855;51.072;5.402;2023-01-19T09:45:57;2.20;99.90
54954;DHT22;40855;51.072;5.402;2023-01-19T09:48:46;2.20;99.90
54954;DHT22;40855;51.072;5.402;2023-01-19T09:51:27;2.10;99.90
54954;DHT22;40855;51.072;5.402;2023-01-19T09:56:37;2.10;99.90
54954;DHT22;40855;51.072;5.402;2023-01-19T10:07:53;2.20;99.90
54954;DHT22;40855;51.072;5.402;2023-01-19T10:10:21;2.20;99.90
54954;DHT22;40855;51.072;5.402;2023-01-19T10:18:26;2.20;99.90
54954;DHT22;40855;51.072;5.402;2023-01-19T10:21:13;2.30;99.90
54954;DHT22;40855;51.072;5.402;2023-01-19T10:23:52;2.20;99.90
54954;DHT22;40855;51.072;5.402;2023-01-19T10:26:28;2.30;99.90
54954;DHT22;40855;51.072;5.402;2023-01-19T10:29:10;2.30;99.90
54954;DHT22;40855;51.072;5.402;2023-01-19T10:31:39;2.30;99.90
54954;DHT22;40855;51.072;5.402;2023-01-19T10:34:11;2.20;99.90
54954;DHT22;40855;51.072;5.402;2023-01-19T10:36:44;2.30;99.90
54954;DHT22;40855;51.072;5.402;2023-01-19T10:39:14;2.30;99.90
54954;DHT22;40855;51.072;5.402;2023-01-19T10:41:51;2.30;99.90
54954;DHT22;40855;51.072;5.402;2023-01-19T10:46:50;2.30;99.90
54954;DHT22;40855;51.072;5.402;2023-01-19T10:51:52;2.50;99.90
54954;DHT22;40855;51.072;5.402;2023-01-19T10:54:19;2.40;99.90
54954;DHT22;40855;51.072;5.402;2023-01-19T10:56:52;2.40;99.90
54954;DHT22;40855;51.072;5.402;2023-01-19T10:59:48;2.40;99.90
54954;DHT22;40855;51.072;5.402;2023-01-19T11:02:25;2.40;99.90
54954;DHT22;40855;51.072;5.402;2023-01-19T11:05:20;2.50;99.90
54954;DHT22;40855;51.072;5.402;2023-01-19T11:07:39;2.50;99.90
54954;DHT22;40855;51.072;5.402;2023-01-19T11:10:21;2.50;99.90
54954;DHT22;40855;51.072;5.402;2023-01-19T11:13:09;2.50;99.90
54954;DHT22;40855;51.072;5.402;2023-01-19T11:15:49;2.50;99.90
54954;DHT22;40855;51.072;5.402;2023-01-19T11:18:35;2.60;99.90
54954;DHT22;40855;51.072;5.402;2023-01-19T11:21:08;2.60;99.90
54954;DHT22;40855;51.072;5.402;2023-01-19T11:23:40;2.60;99.90
54954;DHT22;40855;51.072;5.402;2023-01-19T11:26:28;2.60;99.90
54954;DHT22;40855;51.072;5.402;2023-01-19T11:28:56;2.60;99.90
54954;DHT22;40855;51.072;5.402;2023-01-19T11:31:32;2.60;99.90
54954;DHT22;40855;51.072;5.402;2023-01-19T11:36:56;2.60;99.90
54954;DHT22;40855;51.072;5.402;2023-01-19T11:39:26;2.60;99.90
54954;DHT22;40855;51.072;5.402;2023-01-19T11:42:11;2.70;99.90
54954;DHT22;40855;51.072;5.402;2023-01-19T11:47:41;2.60;99.90
54954;DHT22;40855;51.072;5.402;2023-01-19T11:52:58;2.70;99.90
54954;DHT22;40855;51.072;5.402;2023-01-19T11:55:47;2.70;99.90
54954;DHT22;40855;51.072;5.402;2023-01-19T11:58:18;2.60;99.90
54954;DHT22;40855;51.072;5.402;2023-01-19T12:01:06;2.60;99.90
54954;DHT22;40855;51.072;5.402;2023-01-19T12:03:39;2.80;99.90
54954;DHT22;40855;51.072;5.402;2023-01-19T12:06:17;2.70;99.90
54954;DHT22;40855;51.072;5.402;2023-01-19T12:11:43;2.60;99.90
54954;DHT22;40855;51.072;5.402;2023-01-19T12:14:33;2.60;99.90
54954;DHT22;40855;51.072;5.402;2023-01-19T12:17:03;2.60;99.90
54954;DHT22;40855;51.072;5.402;2023-01-19T12:19:48;2.60;99.90
54954;DHT22;40855;51.072;5.402;2023-01-19T12:22:18;2.60;99.90
54954;DHT22;40855;51.072;5.402;2023-01-19T12:25:01;2.60;99.90
54954;DHT22;40855;51.072;5.402;2023-01-19T12:27:41;2.70;99.90
54954;DHT22;40855;51.072;5.402;2023-01-19T12:30:27;2.60;99.90
54954;DHT22;40855;51.072;5.402;2023-01-19T12:33:46;2.60;99.90
54954;DHT22;40855;51.072;5.402;2023-01-19T12:39:22;2.60;99.90
54954;DHT22;40855;51.072;5.402;2023-01-19T12:42:15;2.60;99.90
54954;DHT22;40855;51.072;5.402;2023-01-19T12:44:45;2.60;99.90
54954;DHT22;40855;51.072;5.402;2023-01-19T12:49:46;2.60;99.90
54954;DHT22;40855;51.072;5.402;2023-01-19T12:52:31;2.60;99.90
54954;DHT22;40855;51.072;5.402;2023-01-19T13:02:51;2.70;99.90
54954;DHT22;40855;51.072;5.402;2023-01-19T13:05:21;2.60;99.90
54954;DHT22;40855;51.072;5.402;2023-01-19T13:13:34;2.60;99.90
54954;DHT22;40855;51.072;5.402;2023-01-19T13:19:12;2.60;99.90
54954;DHT22;40855;51.072;5.402;2023-01-19T13:21:41;2.60;99.90
54954;DHT22;40855;51.072;5.402;2023-01-19T13:24:15;2.60;99.90
54954;DHT22;40855;51.072;5.402;2023-01-19T13:27:02;2.60;99.90
54954;DHT22;40855;51.072;5.402;2023-01-19T13:29:31;2.60;99.90
54954;DHT22;40855;51.072;5.402;2023-01-19T13:32:11;2.60;99.90
54954;DHT22;40855;51.072;5.402;2023-01-19T13:34:39;2.60;99.90
54954;DHT22;40855;51.072;5.402;2023-01-19T13:37:21;2.70;99.90
54954;DHT22;40855;51.072;5.402;2023-01-19T13:39:50;2.70;99.90
54954;DHT22;40855;51.072;5.402;2023-01-19T13:42:33;2.70;99.90
54954;DHT22;40855;51.072;5.402;2023-01-19T13:45:27;2.70;99.90
54954;DHT22;40855;51.072;5.402;2023-01-19T13:47:51;2.70;99.90
54954;DHT22;40855;51.072;5.402;2023-01-19T13:50:23;2.70;99.90
54954;DHT22;40855;51.072;5.402;2023-01-19T13:52:49;2.70;99.90
54954;DHT22;40855;51.072;5.402;2023-01-19T13:55:18;2.70;99.90
54954;DHT22;40855;51.072;5.402;2023-01-19T13:57:46;2.70;99.90
54954;DHT22;40855;51.072;5.402;2023-01-19T14:00:23;2.80;99.90
54954;DHT22;40855;51.072;5.402;2023-01-19T14:05:42;2.80;99.90
54954;DHT22;40855;51.072;5.402;2023-01-19T14:13:10;2.80;99.90
54954;DHT22;40855;51.072;5.402;2023-01-19T14:15:37;2.80;99.90
54954;DHT22;40855;51.072;5.402;2023-01-19T14:20:55;2.80;99.90
54954;DHT22;40855;51.072;5.402;2023-01-19T14:23:44;2.90;99.90
54954;DHT22;40855;51.072;5.402;2023-01-19T14:29:30;2.90;99.90
54954;DHT22;40855;51.072;5.402;2023-01-19T14:34:44;2.90;99.90
54954;DHT22;40855;51.072;5.402;2023-01-19T14:37:26;2.90;99.90
54954;DHT22;40855;51.072;5.402;2023-01-19T14:42:38;3.00;99.90
54954;DHT22;40855;51.072;5.402;2023-01-19T14:48:05;3.00;99.90
54954;DHT22;40855;51.072;5.402;2023-01-19T14:50:41;3.10;99.90
54954;DHT22;40855;51.072;5.402;2023-01-19T14:53:15;3.10;99.90
54954;DHT22;40855;51.072;5.402;2023-01-19T14:58:17;3.10;99.90
54954;DHT22;40855;51.072;5.402;2023-01-19T15:00:44;3.20;99.90
54954;DHT22;40855;51.072;5.402;2023-01-19T15:03:10;3.10;99.90
54954;DHT22;40855;51.072;5.402;2023-01-19T15:05:37;3.10;99.90
54954;DHT22;40855;51.072;5.402;2023-01-19T15:08:04;3.10;99.90
54954;DHT22;40855;51.072;5.402;2023-01-19T15:10:30;3.10;99.90
54954;DHT22;40855;51.072;5.402;2023-01-19T15:12:56;3.10;99.90
54954;DHT22;40855;51.072;5.402;2023-01-19T15:15:30;3.10;99.90
54954;DHT22;40855;51.072;5.402;2023-01-19T15:17:58;3.20;99.90
54954;DHT22;40855;51.072;5.402;2023-01-19T15:20:25;3.20;99.90
54954;DHT22;40855;51.072;5.402;2023-01-19T15:22:51;3.20;99.90
54954;DHT22;40855;51.072;5.402;2023-01-19T15:25:20;3.20;99.90
54954;DHT22;40855;51.072;5.402;2023-01-19T15:27:46;3.20;99.90
54954;DHT22;40855;51.072;5.402;2023-01-19T15:30:21;3.20;99.90
54954;DHT22;40855;51.072;5.402;2023-01-19T15:32:48;3.20;99.90
54954;DHT22;40855;51.072;5.402;2023-01-19T15:35:21;3.10;99.90
54954;DHT22;40855;51.072;5.402;2023-01-19T15:37:48;3.10;99.90
54954;DHT22;40855;51.072;5.402;2023-01-19T15:40:16;3.10;99.90
54954;DHT22;40855;51.072;5.402;2023-01-19T15:42:42;3.10;99.90
54954;DHT22;40855;51.072;5.402;2023-01-19T15:45:37;3.10;99.90
54954;DHT22;40855;51.072;5.402;2023-01-19T15:48:14;3.10;99.90
54954;DHT22;40855;51.072;5.402;2023-01-19T15:50:42;3.20;99.90
54954;DHT22;40855;51.072;5.402;2023-01-19T15:53:16;3.20;99.90
54954;DHT22;40855;51.072;5.402;2023-01-19T15:55:43;3.20;99.90
54954;DHT22;40855;51.072;5.402;2023-01-19T15:58:09;3.20;99.90
54954;DHT22;40855;51.072;5.402;2023-01-19T16:00:37;3.20;99.90
54954;DHT22;40855;51.072;5.402;2023-01-19T16:03:03;3.20;99.90
54954;DHT22;40855;51.072;5.402;2023-01-19T16:05:29;3.20;99.90
54954;DHT22;40855;51.072;5.402;2023-01-19T16:07:55;3.20;99.90
54954;DHT22;40855;51.072;5.402;2023-01-19T16:10:20;3.30;99.90
54954;DHT22;40855;51.072;5.402;2023-01-19T16:12:46;3.20;99.90
54954;DHT22;40855;51.072;5.402;2023-01-19T16:15:13;3.30;99.90
54954;DHT22;40855;51.072;5.402;2023-01-19T16:17:39;3.30;99.90
54954;DHT22;40855;51.072;5.402;2023-01-19T16:20:06;3.30;99.90
54954;DHT22;40855;51.072;5.402;2023-01-19T16:22:34;3.30;99.90
54954;DHT22;40855;51.072;5.402;2023-01-19T16:25:00;3.30;99.90
54954;DHT22;40855;51.072;5.402;2023-01-19T16:27:26;3.20;99.90
54954;DHT22;40855;51.072;5.402;2023-01-19T16:29:52;3.30;99.90
54954;DHT22;40855;51.072;5.402;2023-01-19T16:32:18;3.20;99.90
54954;DHT22;40855;51.072;5.402;2023-01-19T16:34:44;3.20;99.90
54954;DHT22;40855;51.072;5.402;2023-01-19T16:37:10;3.20;99.90
54954;DHT22;40855;51.072;5.402;2023-01-19T16:39:36;3.20;99.90
54954;DHT22;40855;51.072;5.402;2023-01-19T16:42:02;3.30;99.90
54954;DHT22;40855;51.072;5.402;2023-01-19T16:44:28;3.20;99.90
54954;DHT22;40855;51.072;5.402;2023-01-19T16:46:54;3.20;99.90
54954;DHT22;40855;51.072;5.402;2023-01-19T16:49:22;3.20;99.90
54954;DHT22;40855;51.072;5.402;2023-01-19T16:51:49;3.30;99.90
54954;DHT22;40855;51.072;5.402;2023-01-19T16:54:23;3.20;99.90
54954;DHT22;40855;51.072;5.402;2023-01-19T16:56:50;3.20;99.90
54954;DHT22;40855;51.072;5.402;2023-01-19T16:59:17;3.10;99.90
54954;DHT22;40855;51.072;5.402;2023-01-19T17:01:43;3.10;99.90
54954;DHT22;40855;51.072;5.402;2023-01-19T17:04:12;3.10;99.90
54954;DHT22;40855;51.072;5.402;2023-01-19T17:06:38;3.10;99.90
54954;DHT22;40855;51.072;5.402;2023-01-19T17:09:04;3.10;99.90
54954;DHT22;40855;51.072;5.402;2023-01-19T17:11:39;3.10;99.90
54954;DHT22;40855;51.072;5.402;2023-01-19T17:14:14;3.10;99.90
54954;DHT22;40855;51.072;5.402;2023-01-19T17:16:41;3.00;99.90
54954;DHT22;40855;51.072;5.402;2023-01-19T17:19:09;3.10;99.90
54954;DHT22;40855;51.072;5.402;2023-01-19T17:21:36;3.10;99.90
54954;DHT22;40855;51.072;5.402;2023-01-19T17:24:01;3.10;99.90
54954;DHT22;40855;51.072;5.402;2023-01-19T17:26:28;3.10;99.90
54954;DHT22;40855;51.072;5.402;2023-01-19T17:29:05;3.10;99.90
54954;DHT22;40855;51.072;5.402;2023-01-19T17:31:32;3.10;99.90
54954;DHT22;40855;51.072;5.402;2023-01-19T17:33:58;3.00;99.90
54954;DHT22;40855;51.072;5.402;2023-01-19T17:36:25;3.00;99.90
54954;DHT22;40855;51.072;5.402;2023-01-19T17:38:54;3.00;99.90
54954;DHT22;40855;51.072;5.402;2023-01-19T17:43:51;2.90;99.90